• Join FlightAware (Why Join?)
  • Login
  • US Flag 
Gobble Gobble! 
08:26PM EST


 

Airport Tracker/Info


-or-


 

Live Flight TrackerFlight Track Log ✈ BKN28 ✈ 29-May-2013 ✈ KTAZ - KCPS

Flight Track Log - Related Links

Times and Time Zones

All times are in EDT time to prevent confusion due to time zone crossing. See the BKN28 flight status page for this flight to view local times or setup timezone preferences in your user account.

Time Position Orientation Groundspeed Altitude Reporting Facility
EDT Latitude Longitude Course Direction KTS MPH feet Rate Location/Type
11:00PM 39.4819 -89.3617 213° Southwest 47 54 3,800  Level Kansas City Center
11:01PM 39.4672 -89.3747 214° Southwest 57 66 4,000  Climbing Kansas City Center
11:02PM 39.4447 -89.3936 213° Southwest 88 101 3,900  Descending Kansas City Center
11:03PM 39.4217 -89.4142 215° Southwest 86 99 4,000  Climbing Kansas City Center
11:04PM 39.3994 -89.4350 216° Southwest 83 96 4,000  Level Kansas City Center
11:05PM 39.3797 -89.4508 212° Southwest 83 96 4,000  Level Kansas City Center
11:06PM 39.3611 -89.4678 215° Southwest 83 96 4,000  Level Kansas City Center
11:07PM 39.3419 -89.4864 217° Southwest 85 98 4,000  Level Kansas City Center
11:08PM 39.3236 -89.5050 218° Southwest 84 97 4,000  Level Kansas City Center
11:09PM 39.3056 -89.5211 215° Southwest 81 93 4,100  Climbing Kansas City Center
11:10PM 39.2858 -89.5381 214° Southwest 83 96 4,100 -60 Level Kansas City Center
11:11PM 39.2672 -89.5525 211° Southwest 80 92 4,000 -60 Descending Kansas City Center
11:12PM 39.2492 -89.5719 220° Southwest 82 94 4,000  Level Kansas City Center
11:13PM 39.2308 -89.5869 212° Southwest 80 92 4,100  Climbing Kansas City Center
11:14PM 39.2125 -89.6058 219° Southwest 83 96 4,100 -60 Level Kansas City Center
11:15PM 39.1931 -89.6228 214° Southwest 84 97 4,000 -60 Descending Kansas City Center
11:16PM 39.1736 -89.6394 214° Southwest 77 89 4,000  Level Kansas City Center
11:17PM 39.1556 -89.6517 208° Southwest 73 84 4,000  Level Kansas City Center
11:18PM 39.1372 -89.6700 218° Southwest 77 89 4,000  Level Kansas City Center
11:19PM 39.1206 -89.6858 216° Southwest 75 86 4,000  Level Kansas City Center
11:20PM 39.0997 -89.6928 195° South 77 89 4,000  Level Kansas City Center
11:21PM 39.0786 -89.7014 198° South 78 90 4,000  Level Kansas City Center
11:22PM 39.0583 -89.7103 199° South 79 91 4,000  Level Kansas City Center
11:23PM 39.0347 -89.7186 195° South 81 93 4,000  Level Kansas City Center
11:24PM 39.0128 -89.7267 196° South 82 94 4,000  Level Kansas City Center
11:25PM 38.9917 -89.7364 200° South 83 96 4,000  Level Kansas City Center
11:27PM 38.9706 -89.7450 198° South 80 92 4,000  Level Kansas City Center
11:28PM 38.9486 -89.7522 194° South 79 91 4,000 -240 Level Kansas City Center
11:29PM 38.9261 -89.7633 201° Southwest 81 93 3,600 -540 Descending Kansas City Center
11:30PM 38.9097 -89.7711 200° South 77 89 3,000 -300 Descending Kansas City Center
11:31PM 38.8878 -89.7728 183° South 77 89 3,000  Level Kansas City Center
11:32PM 38.8672 -89.7789 193° South 77 89 3,000  Level Kansas City Center
11:33PM 38.8456 -89.7894 201° Southwest 79 91 3,000  Level Kansas City Center
11:34PM 38.8258 -89.7969 197° South 78 90 3,000 240 Level Kansas City Center
11:35PM 38.8039 -89.8067 199° South 74 85 3,500 240 Climbing Kansas City Center
11:36PM 38.7842 -89.8142 197° South 72 83 3,600  Climbing Kansas City Center
11:37PM 38.7622 -89.8192 190° South 75 86 3,500 -60 Descending Kansas City Center
11:38PM 38.7406 -89.8258 193° South 77 89 3,500  Level Kansas City Center
11:39PM 38.7211 -89.8339 198° South 76 87 3,500  Level Kansas City Center
11:40PM 38.7006 -89.8425 198° South 77 89 3,600  Climbing Kansas City Center
11:41PM 38.6792 -89.8531 201° Southwest 79 91 3,500  Descending Kansas City Center
11:42PM 38.6578 -89.8597 194° South 80 92 3,600  Climbing Kansas City Center
11:43PM 38.6369 -89.8692 199° South 79 91 3,500 -240 Descending Kansas City Center
11:44PM 38.6147 -89.8783 198° South 81 93 3,200 -300 Descending Kansas City Center
11:45PM 38.5911 -89.8861 194° South 84 97 2,900 -120 Descending Kansas City Center
11:46PM 38.5722 -89.8908 191° South 79 91 3,000  Climbing Kansas City Center
11:47PM 38.5511 -89.8964 192° South 76 87 2,900  Descending Kansas City Center
11:48PM 38.5314 -89.9069 203° Southwest 77 89 3,000  Climbing Kansas City Center
11:49PM 38.5114 -89.9158 199° South 76 87 3,000  Level Kansas City Center
11:50PM 38.4903 -89.9242 197° South 77 89 3,000 -240 Level Kansas City Center
11:51PM 38.4911 -89.9594 272° West 105 121 2,600 -300 Descending Kansas City Center
11:52PM 38.4992 -90.0000 284° West 114 131 2,500 -240 Descending Kansas City Center
11:53PM 38.5089 -90.0425 286° West 110 127 2,200 -360 Descending Kansas City Center
11:54PM 38.5286 -90.0719 311° West 109 125 1,800 -540 Descending Kansas City Center
11:55PM 38.5425 -90.1006 302° West 102 117 1,200 -540 Descending Kansas City Center
11:56PM 38.5550 -90.1267 301° West 94 108 800 -300 Descending Kansas City Center
11:57PM 38.5672 -90.1517 302° West 93 107 600 -240 Descending Kansas City Center